sensor_id;sensor_type;location;lat;lon;timestamp;pressure;altitude;pressure_sealevel;temperature;humidity
60345;BME280;46188;52.324;8.032;2023-05-08T00:00:22;101043.72;;;9.89;100.00
60345;BME280;46188;52.324;8.032;2023-05-08T00:02:48;101046.22;;;9.83;100.00
60345;BME280;46188;52.324;8.032;2023-05-08T00:05:13;101032.16;;;9.83;100.00
60345;BME280;46188;52.324;8.032;2023-05-08T00:07:39;101033.91;;;9.82;100.00
60345;BME280;46188;52.324;8.032;2023-05-08T00:10:06;101033.91;;;9.82;100.00
60345;BME280;46188;52.324;8.032;2023-05-08T00:12:31;101027.84;;;9.85;100.00
60345;BME280;46188;52.324;8.032;2023-05-08T00:14:57;101025.19;;;9.86;100.00
60345;BME280;46188;52.324;8.032;2023-05-08T00:17:22;101027.84;;;9.86;100.00
60345;BME280;46188;52.324;8.032;2023-05-08T00:19:47;101025.19;;;9.86;100.00
60345;BME280;46188;52.324;8.032;2023-05-08T00:22:12;101027.09;;;9.92;100.00
60345;BME280;46188;52.324;8.032;2023-05-08T00:24:38;101032.41;;;9.93;100.00
60345;BME280;46188;52.324;8.032;2023-05-08T00:27:03;101029.75;;;9.92;100.00
60345;BME280;46188;52.324;8.032;2023-05-08T00:29:28;101029.78;;;9.93;100.00
60345;BME280;46188;52.324;8.032;2023-05-08T00:31:53;101024.50;;;9.93;100.00
60345;BME280;46188;52.324;8.032;2023-05-08T00:34:19;101026.25;;;9.94;100.00
60345;BME280;46188;52.324;8.032;2023-05-08T00:36:44;101019.31;;;9.96;100.00
60345;BME280;46188;52.324;8.032;2023-05-08T00:39:09;101021.03;;;9.96;100.00
60345;BME280;46188;52.324;8.032;2023-05-08T00:41:34;101026.22;;;9.93;100.00
60345;BME280;46188;52.324;8.032;2023-05-08T00:44:00;101020.97;;;9.93;100.00
60345;BME280;46188;52.324;8.032;2023-05-08T00:46:25;101027.09;;;9.92;100.00
60345;BME280;46188;52.324;8.032;2023-05-08T00:48:51;101027.19;;;9.95;100.00
60345;BME280;46188;52.324;8.032;2023-05-08T00:51:16;101028.25;;;10.03;100.00
60345;BME280;46188;52.324;8.032;2023-05-08T00:53:44;101025.56;;;10.02;100.00
60345;BME280;46188;52.324;8.032;2023-05-08T00:56:11;101023.00;;;10.05;100.00
60345;BME280;46188;52.324;8.032;2023-05-08T00:58:37;101028.41;;;10.12;100.00
60345;BME280;46188;52.324;8.032;2023-05-08T01:01:02;101031.19;;;10.19;100.00
60345;BME280;46188;52.324;8.032;2023-05-08T01:03:28;101029.50;;;10.22;100.00
60345;BME280;46188;52.324;8.032;2023-05-08T01:05:55;101026.78;;;10.18;100.00
60345;BME280;46188;52.324;8.032;2023-05-08T01:08:21;101026.59;;;10.08;100.00
60345;BME280;46188;52.324;8.032;2023-05-08T01:11:00;101027.31;;;10.03;100.00
60345;BME280;46188;52.324;8.032;2023-05-08T01:13:49;101029.25;;;10.10;100.00
60345;BME280;46188;52.324;8.032;2023-05-08T01:22:08;101019.75;;;10.16;100.00
60345;BME280;46188;52.324;8.032;2023-05-08T01:27:55;101019.81;;;10.20;100.00
60345;BME280;46188;52.324;8.032;2023-05-08T01:30:52;101020.56;;;10.14;100.00
60345;BME280;46188;52.324;8.032;2023-05-08T01:33:27;101020.56;;;10.14;100.00
60345;BME280;46188;52.324;8.032;2023-05-08T01:36:00;101018.84;;;10.16;100.00
60345;BME280;46188;52.324;8.032;2023-05-08T01:38:39;101027.75;;;10.21;100.00
60345;BME280;46188;52.324;8.032;2023-05-08T01:41:24;101025.97;;;10.20;100.00
60345;BME280;46188;52.324;8.032;2023-05-08T01:44:12;101032.22;;;10.25;100.00
60345;BME280;46188;52.324;8.032;2023-05-08T01:46:41;101032.16;;;10.22;100.00
60345;BME280;46188;52.324;8.032;2023-05-08T01:49:17;101025.81;;;10.14;100.00
60345;BME280;46188;52.324;8.032;2023-05-08T01:51:46;101031.94;;;10.11;100.00
60345;BME280;46188;52.324;8.032;2023-05-08T01:54:20;101024.91;;;10.12;100.00
60345;BME280;46188;52.324;8.032;2023-05-08T01:56:46;101025.88;;;10.17;100.00
60345;BME280;46188;52.324;8.032;2023-05-08T01:59:16;101035.44;;;10.12;100.00
60345;BME280;46188;52.324;8.032;2023-05-08T02:01:44;101029.44;;;10.19;100.00
60345;BME280;46188;52.324;8.032;2023-05-08T02:04:13;101029.44;;;10.19;100.00
60345;BME280;46188;52.324;8.032;2023-05-08T02:06:39;101032.03;;;10.18;100.00
60345;BME280;46188;52.324;8.032;2023-05-08T02:09:07;101021.69;;;10.25;100.00
60345;BME280;46188;52.324;8.032;2023-05-08T02:11:34;101025.25;;;10.29;100.00
60345;BME280;46188;52.324;8.032;2023-05-08T02:14:01;101026.16;;;10.29;100.00
60345;BME280;46188;52.324;8.032;2023-05-08T02:16:27;101027.00;;;10.28;100.00
60345;BME280;46188;52.324;8.032;2023-05-08T02:18:55;101035.72;;;10.26;100.00
60345;BME280;46188;52.324;8.032;2023-05-08T02:21:22;101034.78;;;10.22;100.00
60345;BME280;46188;52.324;8.032;2023-05-08T02:23:48;101040.94;;;10.21;100.00
60345;BME280;46188;52.324;8.032;2023-05-08T02:26:14;101034.78;;;10.22;100.00
60345;BME280;46188;52.324;8.032;2023-05-08T02:28:41;101044.31;;;10.15;100.00
60345;BME280;46188;52.324;8.032;2023-05-08T02:31:08;101035.50;;;10.15;100.00
60345;BME280;46188;52.324;8.032;2023-05-08T02:33:33;101034.63;;;10.14;100.00
60345;BME280;46188;52.324;8.032;2023-05-08T02:36:01;101032.88;;;10.15;100.00
60345;BME280;46188;52.324;8.032;2023-05-08T02:38:27;101038.16;;;10.15;100.00
60345;BME280;46188;52.324;8.032;2023-05-08T02:40:56;101033.91;;;10.22;100.00
60345;BME280;46188;52.324;8.032;2023-05-08T02:43:22;101034.81;;;10.24;100.00
60345;BME280;46188;52.324;8.032;2023-05-08T02:48:41;101039.06;;;10.17;100.00
60345;BME280;46188;52.324;8.032;2023-05-08T02:51:21;101038.19;;;10.16;100.00
60345;BME280;46188;52.324;8.032;2023-05-08T02:53:54;101042.44;;;10.10;100.00
60345;BME280;46188;52.324;8.032;2023-05-08T02:56:43;101038.84;;;10.08;100.00
60345;BME280;46188;52.324;8.032;2023-05-08T02:59:17;101035.19;;;10.00;100.00
60345;BME280;46188;52.324;8.032;2023-05-08T03:01:50;101028.16;;;10.00;100.00
60345;BME280;46188;52.324;8.032;2023-05-08T03:04:33;101023.84;;;10.04;100.00
60345;BME280;46188;52.324;8.032;2023-05-08T03:07:01;101026.47;;;10.04;100.00
60345;BME280;46188;52.324;8.032;2023-05-08T03:09:40;101016.81;;;10.04;100.00
60345;BME280;46188;52.324;8.032;2023-05-08T03:12:11;101014.19;;;10.04;100.00
60345;BME280;46188;52.324;8.032;2023-05-08T03:14:43;101011.25;;;9.90;100.00
60345;BME280;46188;52.324;8.032;2023-05-08T03:17:12;101014.88;;;9.95;100.00
60345;BME280;46188;52.324;8.032;2023-05-08T03:19:40;101016.88;;;10.06;100.00
60345;BME280;46188;52.324;8.032;2023-05-08T03:22:08;101019.47;;;10.04;100.00
60345;BME280;46188;52.324;8.032;2023-05-08T03:24:35;101019.38;;;10.00;100.00
60345;BME280;46188;52.324;8.032;2023-05-08T03:27:03;101009.75;;;10.02;100.00
60345;BME280;46188;52.324;8.032;2023-05-08T03:29:29;101013.38;;;10.07;100.00
60345;BME280;46188;52.324;8.032;2023-05-08T03:31:56;101021.03;;;9.96;100.00
60345;BME280;46188;52.324;8.032;2023-05-08T03:34:22;101013.88;;;9.89;100.00
60345;BME280;46188;52.324;8.032;2023-05-08T03:36:49;101016.28;;;9.79;100.00
60345;BME280;46188;52.324;8.032;2023-05-08T03:39:14;101009.97;;;9.73;100.00
60345;BME280;46188;52.324;8.032;2023-05-08T03:41:40;101010.75;;;9.67;100.00
60345;BME280;46188;52.324;8.032;2023-05-08T03:44:06;101012.34;;;9.60;100.00
60345;BME280;46188;52.324;8.032;2023-05-08T03:46:31;101014.66;;;9.48;100.00
60345;BME280;46188;52.324;8.032;2023-05-08T03:48:59;101007.56;;;9.44;100.00
60345;BME280;46188;52.324;8.032;2023-05-08T03:51:26;101006.72;;;9.45;100.00
60345;BME280;46188;52.324;8.032;2023-05-08T03:53:52;101002.34;;;9.46;100.00
60345;BME280;46188;52.324;8.032;2023-05-08T03:56:17;101012.59;;;9.35;100.00
60345;BME280;46188;52.324;8.032;2023-05-08T04:01:38;100997.50;;;9.28;100.00
60345;BME280;46188;52.324;8.032;2023-05-08T04:04:10;101011.41;;;9.22;100.00
60345;BME280;46188;52.324;8.032;2023-05-08T04:09:37;101015.28;;;9.03;100.00
60345;BME280;46188;52.324;8.032;2023-05-08T04:14:48;101010.81;;;8.99;100.00
60345;BME280;46188;52.324;8.032;2023-05-08T04:17:19;101011.56;;;8.95;100.00
60345;BME280;46188;52.324;8.032;2023-05-08T04:19:51;101002.91;;;8.97;100.00
60345;BME280;46188;52.324;8.032;2023-05-08T04:22:20;101004.88;;;9.06;100.00
60345;BME280;46188;52.324;8.032;2023-05-08T04:24:49;101009.28;;;9.07;100.00
60345;BME280;46188;52.324;8.032;2023-05-08T04:27:16;101007.50;;;9.06;100.00
60345;BME280;46188;52.324;8.032;2023-05-08T04:29:41;101008.34;;;9.05;100.00
60345;BME280;46188;52.324;8.032;2023-05-08T04:32:07;101007.66;;;9.12;100.00
60345;BME280;46188;52.324;8.032;2023-05-08T04:34:33;101009.34;;;9.10;100.00
60345;BME280;46188;52.324;8.032;2023-05-08T04:36:58;101015.44;;;9.08;100.00
60345;BME280;46188;52.324;8.032;2023-05-08T04:39:23;101017.34;;;9.15;100.00
60345;BME280;46188;52.324;8.032;2023-05-08T04:41:48;101020.91;;;9.15;100.00
60345;BME280;46188;52.324;8.032;2023-05-08T04:44:16;101025.38;;;9.19;100.00
60345;BME280;46188;52.324;8.032;2023-05-08T04:46:41;101028.19;;;9.27;100.00
60345;BME280;46188;52.324;8.032;2023-05-08T04:49:06;101032.63;;;9.30;100.00
60345;BME280;46188;52.324;8.032;2023-05-08T04:51:32;101033.50;;;9.29;100.00
60345;BME280;46188;52.324;8.032;2023-05-08T04:53:57;101036.25;;;9.35;100.00
60345;BME280;46188;52.324;8.032;2023-05-08T04:56:23;101034.75;;;9.45;100.00
60345;BME280;46188;52.324;8.032;2023-05-08T04:58:48;101029.69;;;9.52;100.00
60345;BME280;46188;52.324;8.032;2023-05-08T05:01:13;101045.44;;;9.51;100.00
60345;BME280;46188;52.324;8.032;2023-05-08T05:03:38;101052.53;;;9.53;100.00
60345;BME280;46188;52.324;8.032;2023-05-08T05:06:04;101052.59;;;9.56;100.00
60345;BME280;46188;52.324;8.032;2023-05-08T05:08:29;101050.09;;;9.63;100.00
60345;BME280;46188;52.324;8.032;2023-05-08T05:10:55;101058.94;;;9.65;100.00
60345;BME280;46188;52.324;8.032;2023-05-08T05:13:20;101052.84;;;9.67;100.00
60345;BME280;46188;52.324;8.032;2023-05-08T05:15:45;101062.75;;;9.77;100.00
60345;BME280;46188;52.324;8.032;2023-05-08T05:18:11;101060.34;;;9.87;100.00
60345;BME280;46188;52.324;8.032;2023-05-08T05:20:36;101066.69;;;9.95;100.00
60345;BME280;46188;52.324;8.032;2023-05-08T05:23:02;101076.53;;;10.04;100.00
60345;BME280;46188;52.324;8.032;2023-05-08T05:25:27;101074.97;;;10.12;100.00
60345;BME280;46188;52.324;8.032;2023-05-08T05:27:53;101075.19;;;10.23;100.00
60345;BME280;46188;52.324;8.032;2023-05-08T05:30:18;101069.34;;;10.34;100.00
60345;BME280;46188;52.324;8.032;2023-05-08T05:32:43;101072.31;;;10.50;100.00
60345;BME280;46188;52.324;8.032;2023-05-08T05:35:09;101061.13;;;10.62;100.00
60345;BME280;46188;52.324;8.032;2023-05-08T05:37:34;101069.13;;;10.66;100.00
60345;BME280;46188;52.324;8.032;2023-05-08T05:40:00;101071.81;;;10.69;100.00
60345;BME280;46188;52.324;8.032;2023-05-08T05:42:25;101065.78;;;10.75;100.00
60345;BME280;46188;52.324;8.032;2023-05-08T05:44:50;101067.53;;;10.75;100.00
60345;BME280;46188;52.324;8.032;2023-05-08T05:47:15;101062.34;;;10.79;100.00
60345;BME280;46188;52.324;8.032;2023-05-08T05:49:41;101067.03;;;10.94;100.00
60345;BME280;46188;52.324;8.032;2023-05-08T05:52:10;101065.38;;;10.99;100.00
60345;BME280;46188;52.324;8.032;2023-05-08T05:54:36;101061.03;;;11.03;100.00
60345;BME280;46188;52.324;8.032;2023-05-08T05:57:01;101063.69;;;11.03;100.00
60345;BME280;46188;52.324;8.032;2023-05-08T05:59:26;101055.72;;;11.01;100.00
60345;BME280;46188;52.324;8.032;2023-05-08T06:01:51;101054.81;;;10.99;100.00
60345;BME280;46188;52.324;8.032;2023-05-08T06:04:17;101054.88;;;11.02;100.00
60345;BME280;46188;52.324;8.032;2023-05-08T06:06:42;101049.84;;;11.16;100.00
60345;BME280;46188;52.324;8.032;2023-05-08T06:09:07;101050.94;;;11.27;100.00
60345;BME280;46188;52.324;8.032;2023-05-08T06:11:32;101054.59;;;11.36;100.00
60345;BME280;46188;52.324;8.032;2023-05-08T06:13:58;101051.19;;;11.43;100.00
60345;BME280;46188;52.324;8.032;2023-05-08T06:16:23;101037.31;;;11.56;100.00
60345;BME280;46188;52.324;8.032;2023-05-08T06:18:49;101056.06;;;11.72;100.00
60345;BME280;46188;52.324;8.032;2023-05-08T06:21:14;101050.97;;;11.86;100.00
60345;BME280;46188;52.324;8.032;2023-05-08T06:23:40;101047.59;;;11.94;100.00
60345;BME280;46188;52.324;8.032;2023-05-08T06:26:06;101056.69;;;12.13;100.00
60345;BME280;46188;52.324;8.032;2023-05-08T06:28:32;101058.69;;;12.30;100.00
60345;BME280;46188;52.324;8.032;2023-05-08T06:30:57;101047.47;;;12.51;100.00
60345;BME280;46188;52.324;8.032;2023-05-08T06:33:22;101052.97;;;12.66;100.00
60345;BME280;46188;52.324;8.032;2023-05-08T06:35:47;101050.41;;;12.76;100.00
60345;BME280;46188;52.324;8.032;2023-05-08T06:38:13;101044.38;;;12.87;100.00
60345;BME280;46188;52.324;8.032;2023-05-08T06:40:45;101043.59;;;12.96;100.00
60345;BME280;46188;52.324;8.032;2023-05-08T06:43:11;101045.34;;;12.97;100.00
60345;BME280;46188;52.324;8.032;2023-05-08T06:45:37;101050.88;;;13.20;100.00
60345;BME280;46188;52.324;8.032;2023-05-08T06:48:02;101044.09;;;13.45;100.00
60345;BME280;46188;52.324;8.032;2023-05-08T06:50:28;101039.03;;;13.78;100.00
60345;BME280;46188;52.324;8.032;2023-05-08T06:52:53;101037.34;;;13.89;100.00
60345;BME280;46188;52.324;8.032;2023-05-08T06:55:18;101030.31;;;13.96;98.71
60345;BME280;46188;52.324;8.032;2023-05-08T06:57:43;101022.44;;;14.13;98.35
60345;BME280;46188;52.324;8.032;2023-05-08T07:00:09;101023.41;;;14.26;97.37
60345;BME280;46188;52.324;8.032;2023-05-08T07:02:34;101014.63;;;14.44;97.26
60345;BME280;46188;52.324;8.032;2023-05-08T07:05:00;101015.53;;;14.46;96.00
60345;BME280;46188;52.324;8.032;2023-05-08T07:07:25;101009.38;;;14.50;95.45
60345;BME280;46188;52.324;8.032;2023-05-08T07:09:50;101012.88;;;14.44;94.68
60345;BME280;46188;52.324;8.032;2023-05-08T07:12:16;101018.19;;;14.50;94.77
60345;BME280;46188;52.324;8.032;2023-05-08T07:14:41;101016.50;;;14.62;93.76
60345;BME280;46188;52.324;8.032;2023-05-08T07:17:07;101019.22;;;14.80;93.59
60345;BME280;46188;52.324;8.032;2023-05-08T07:19:36;101022.75;;;14.98;93.01
60345;BME280;46188;52.324;8.032;2023-05-08T07:22:02;101029.00;;;15.01;91.87
60345;BME280;46188;52.324;8.032;2023-05-08T07:24:27;101026.31;;;14.98;91.36
60345;BME280;46188;52.324;8.032;2023-05-08T07:26:52;101030.75;;;15.21;90.82
60345;BME280;46188;52.324;8.032;2023-05-08T07:29:18;101037.00;;;15.41;89.68
60345;BME280;46188;52.324;8.032;2023-05-08T07:31:44;101041.41;;;15.53;88.54
60345;BME280;46188;52.324;8.032;2023-05-08T07:34:11;101040.50;;;15.68;87.23
60345;BME280;46188;52.324;8.032;2023-05-08T07:36:36;101040.53;;;15.74;86.53
60345;BME280;46188;52.324;8.032;2023-05-08T07:39:02;101038.72;;;15.95;84.14
60345;BME280;46188;52.324;8.032;2023-05-08T07:41:28;101038.72;;;15.96;83.51
60345;BME280;46188;52.324;8.032;2023-05-08T07:43:53;101036.03;;;16.12;83.43
60345;BME280;46188;52.324;8.032;2023-05-08T07:46:18;101035.06;;;16.36;82.53
60345;BME280;46188;52.324;8.032;2023-05-08T07:48:43;101033.25;;;16.53;81.73
60345;BME280;46188;52.324;8.032;2023-05-08T07:51:09;101038.47;;;16.69;81.56
60345;BME280;46188;52.324;8.032;2023-05-08T07:53:35;101040.19;;;16.81;80.66
60345;BME280;46188;52.324;8.032;2023-05-08T07:56:00;101040.09;;;16.99;80.34
60345;BME280;46188;52.324;8.032;2023-05-08T07:58:26;101038.19;;;17.21;78.37
60345;BME280;46188;52.324;8.032;2023-05-08T08:00:51;101041.75;;;17.17;78.35
60345;BME280;46188;52.324;8.032;2023-05-08T08:03:16;101043.47;;;17.27;78.79
60345;BME280;46188;52.324;8.032;2023-05-08T08:05:41;101050.72;;;17.08;78.77
60345;BME280;46188;52.324;8.032;2023-05-08T08:08:07;101049.75;;;17.19;78.63
60345;BME280;46188;52.324;8.032;2023-05-08T08:10:32;101054.91;;;17.42;77.56
60345;BME280;46188;52.324;8.032;2023-05-08T08:12:58;101054.88;;;17.48;76.87
60345;BME280;46188;52.324;8.032;2023-05-08T08:15:25;101052.13;;;17.56;76.91
60345;BME280;46188;52.324;8.032;2023-05-08T08:17:52;101046.88;;;17.46;76.80
60345;BME280;46188;52.324;8.032;2023-05-08T08:20:17;101047.69;;;17.56;76.35
60345;BME280;46188;52.324;8.032;2023-05-08T08:22:43;101050.06;;;17.84;76.01
60345;BME280;46188;52.324;8.032;2023-05-08T08:25:08;101045.34;;;18.15;75.07
60345;BME280;46188;52.324;8.032;2023-05-08T08:27:34;101043.22;;;18.43;74.82
60345;BME280;46188;52.324;8.032;2023-05-08T08:29:59;101040.41;;;18.56;73.92
60345;BME280;46188;52.324;8.032;2023-05-08T08:32:25;101045.50;;;18.76;72.36
60345;BME280;46188;52.324;8.032;2023-05-08T08:34:50;101047.31;;;18.74;71.55
60345;BME280;46188;52.324;8.032;2023-05-08T08:37:15;101043.38;;;19.01;71.31
60345;BME280;46188;52.324;8.032;2023-05-08T08:39:40;101050.09;;;19.30;69.81
60345;BME280;46188;52.324;8.032;2023-05-08T08:42:06;101041.97;;;19.34;69.57
60345;BME280;46188;52.324;8.032;2023-05-08T08:44:31;101038.81;;;19.64;68.51
60345;BME280;46188;52.324;8.032;2023-05-08T08:46:58;101039.44;;;19.81;67.76
60345;BME280;46188;52.324;8.032;2023-05-08T08:49:28;101040.59;;;20.15;67.16
60345;BME280;46188;52.324;8.032;2023-05-08T08:52:10;101041.53;;;20.12;67.91
60345;BME280;46188;52.324;8.032;2023-05-08T08:54:39;101045.38;;;20.44;65.88
60345;BME280;46188;52.324;8.032;2023-05-08T08:57:07;101038.09;;;20.91;65.26
60345;BME280;46188;52.324;8.032;2023-05-08T08:59:33;101041.44;;;21.02;64.34
60345;BME280;46188;52.324;8.032;2023-05-08T09:02:05;101042.78;;;21.20;64.75
60345;BME280;46188;52.324;8.032;2023-05-08T09:04:33;101034.84;;;21.55;62.88
60345;BME280;46188;52.324;8.032;2023-05-08T09:06:58;101038.50;;;21.51;62.82
60345;BME280;46188;52.324;8.032;2023-05-08T09:09:24;101039.56;;;20.67;65.20
60345;BME280;46188;52.324;8.032;2023-05-08T09:11:51;101037.69;;;20.25;66.85
60345;BME280;46188;52.324;8.032;2023-05-08T09:14:16;101038.28;;;20.40;67.56
60345;BME280;46188;52.324;8.032;2023-05-08T09:16:42;101042.75;;;20.83;66.80
60345;BME280;46188;52.324;8.032;2023-05-08T09:19:07;101031.13;;;21.22;65.06
60345;BME280;46188;52.324;8.032;2023-05-08T09:21:33;101035.31;;;21.35;64.50
60345;BME280;46188;52.324;8.032;2023-05-08T09:24:01;101031.75;;;21.70;63.73
60345;BME280;46188;52.324;8.032;2023-05-08T09:26:32;101022.75;;;22.04;63.74
60345;BME280;46188;52.324;8.032;2023-05-08T09:29:10;101024.56;;;22.04;63.68
60345;BME280;46188;52.324;8.032;2023-05-08T09:31:38;101025.75;;;21.93;64.45
60345;BME280;46188;52.324;8.032;2023-05-08T09:34:07;101025.50;;;21.70;64.75
60345;BME280;46188;52.324;8.032;2023-05-08T09:36:33;101029.38;;;20.83;67.03
60345;BME280;46188;52.324;8.032;2023-05-08T09:39:00;101035.97;;;20.67;68.21
60345;BME280;46188;52.324;8.032;2023-05-08T09:41:25;101027.75;;;21.13;67.40
60345;BME280;46188;52.324;8.032;2023-05-08T09:44:02;101026.16;;;21.80;64.37
60345;BME280;46188;52.324;8.032;2023-05-08T09:46:28;101029.22;;;21.64;65.67
60345;BME280;46188;52.324;8.032;2023-05-08T09:48:56;101024.47;;;21.38;66.29
60345;BME280;46188;52.324;8.032;2023-05-08T09:51:22;101026.47;;;21.67;65.37
60345;BME280;46188;52.324;8.032;2023-05-08T09:53:52;101027.53;;;22.26;63.55
60345;BME280;46188;52.324;8.032;2023-05-08T09:58:55;101026.75;;;21.56;65.44
60345;BME280;46188;52.324;8.032;2023-05-08T10:01:34;101029.75;;;21.41;66.10
60345;BME280;46188;52.324;8.032;2023-05-08T10:03:59;101029.16;;;21.30;67.53
60345;BME280;46188;52.324;8.032;2023-05-08T10:06:25;101028.34;;;21.26;68.19
60345;BME280;46188;52.324;8.032;2023-05-08T10:09:14;101028.66;;;21.14;69.09
60345;BME280;46188;52.324;8.032;2023-05-08T10:11:47;101037.91;;;21.00;69.47
60345;BME280;46188;52.324;8.032;2023-05-08T10:14:17;101029.16;;;20.92;70.27
60345;BME280;46188;52.324;8.032;2023-05-08T10:16:43;101035.41;;;20.93;70.53
60345;BME280;46188;52.324;8.032;2023-05-08T10:19:12;101031.84;;;21.30;69.00
60345;BME280;46188;52.324;8.032;2023-05-08T10:21:40;101026.56;;;21.63;68.04
60345;BME280;46188;52.324;8.032;2023-05-08T10:24:12;101034.50;;;21.67;67.67
60345;BME280;46188;52.324;8.032;2023-05-08T10:26:42;101024.66;;;20.94;68.52
60345;BME280;46188;52.324;8.032;2023-05-08T10:29:12;101025.72;;;20.87;68.70
60345;BME280;46188;52.324;8.032;2023-05-08T10:31:42;101036.91;;;21.05;69.37
60345;BME280;46188;52.324;8.032;2023-05-08T10:34:13;101027.44;;;21.27;69.73
60345;BME280;46188;52.324;8.032;2023-05-08T10:36:43;101019.28;;;21.32;69.64
60345;BME280;46188;52.324;8.032;2023-05-08T10:39:09;101023.44;;;21.45;69.32
60345;BME280;46188;52.324;8.032;2023-05-08T10:41:35;101015.44;;;21.78;67.67
60345;BME280;46188;52.324;8.032;2023-05-08T10:44:01;101015.97;;;21.91;66.47
60345;BME280;46188;52.324;8.032;2023-05-08T10:46:41;101010.44;;;22.30;65.14
60345;BME280;46188;52.324;8.032;2023-05-08T10:49:21;101017.47;;;22.34;64.51
60345;BME280;46188;52.324;8.032;2023-05-08T10:52:14;101014.53;;;21.78;66.32
60345;BME280;46188;52.324;8.032;2023-05-08T10:57:16;101012.94;;;21.34;68.23
60345;BME280;46188;52.324;8.032;2023-05-08T10:59:45;101016.56;;;21.33;69.01
60345;BME280;46188;52.324;8.032;2023-05-08T11:02:11;101016.03;;;21.19;68.95
60345;BME280;46188;52.324;8.032;2023-05-08T11:04:37;101027.31;;;20.94;69.76
60345;BME280;46188;52.324;8.032;2023-05-08T11:07:02;101016.28;;;20.69;70.68
60345;BME280;46188;52.324;8.032;2023-05-08T11:14:53;101010.34;;;20.53;73.54
60345;BME280;46188;52.324;8.032;2023-05-08T11:17:23;101006.72;;;20.56;74.12
60345;BME280;46188;52.324;8.032;2023-05-08T11:19:59;101007.31;;;20.70;73.89
60345;BME280;46188;52.324;8.032;2023-05-08T11:22:27;101013.50;;;20.74;74.36
60345;BME280;46188;52.324;8.032;2023-05-08T11:25:09;101003.84;;;20.65;73.93
60345;BME280;46188;52.324;8.032;2023-05-08T11:35:56;101002.22;;;20.58;74.45
60345;BME280;46188;52.324;8.032;2023-05-08T11:38:34;100997.34;;;20.77;73.55
60345;BME280;46188;52.324;8.032;2023-05-08T11:41:18;100995.28;;;20.88;73.85
60345;BME280;46188;52.324;8.032;2023-05-08T11:44:02;100998.53;;;21.02;73.75
60345;BME280;46188;52.324;8.032;2023-05-08T11:46:52;101002.44;;;20.89;73.39
60345;BME280;46188;52.324;8.032;2023-05-08T11:49:20;101002.38;;;20.92;74.27
60345;BME280;46188;52.324;8.032;2023-05-08T11:51:48;101000.31;;;21.04;74.12
60345;BME280;46188;52.324;8.032;2023-05-08T11:54:16;100993.91;;;21.09;74.43
60345;BME280;46188;52.324;8.032;2023-05-08T11:56:43;100990.81;;;21.26;74.08
60345;BME280;46188;52.324;8.032;2023-05-08T11:59:09;100998.06;;;21.23;73.16
60345;BME280;46188;52.324;8.032;2023-05-08T12:01:34;101002.06;;;21.05;72.54
60345;BME280;46188;52.324;8.032;2023-05-08T12:04:04;101000.44;;;20.97;72.85
60345;BME280;46188;52.324;8.032;2023-05-08T12:06:30;101004.03;;;20.96;73.03
60345;BME280;46188;52.324;8.032;2023-05-08T12:08:56;101003.38;;;20.87;73.10
60345;BME280;46188;52.324;8.032;2023-05-08T12:11:22;100998.06;;;20.83;73.72
60345;BME280;46188;52.324;8.032;2023-05-08T12:13:54;101003.63;;;20.76;74.64
60345;BME280;46188;52.324;8.032;2023-05-08T12:16:21;100997.47;;;20.72;75.81
60345;BME280;46188;52.324;8.032;2023-05-08T12:18:50;101001.16;;;20.67;76.47
60345;BME280;46188;52.324;8.032;2023-05-08T12:21:16;100999.16;;;20.76;76.51
60345;BME280;46188;52.324;8.032;2023-05-08T12:23:41;100997.13;;;20.86;75.27
60345;BME280;46188;52.324;8.032;2023-05-08T12:26:07;101000.66;;;20.88;75.38
60345;BME280;46188;52.324;8.032;2023-05-08T12:28:33;100995.19;;;20.93;75.66
60345;BME280;46188;52.324;8.032;2023-05-08T12:30:59;100991.66;;;20.92;76.00
60345;BME280;46188;52.324;8.032;2023-05-08T12:33:25;100992.78;;;21.18;75.57
60345;BME280;46188;52.324;8.032;2023-05-08T12:35:51;100983.56;;;21.30;74.59
60345;BME280;46188;52.324;8.032;2023-05-08T12:38:16;100989.16;;;21.20;74.93
60345;BME280;46188;52.324;8.032;2023-05-08T12:40:43;100985.03;;;21.07;75.58
60345;BME280;46188;52.324;8.032;2023-05-08T12:43:09;100987.50;;;21.15;75.09
60345;BME280;46188;52.324;8.032;2023-05-08T12:45:39;100984.19;;;21.05;76.13
60345;BME280;46188;52.324;8.032;2023-05-08T12:48:09;100991.13;;;21.14;75.83
60345;BME280;46188;52.324;8.032;2023-05-08T12:50:40;100985.91;;;21.08;75.85
60345;BME280;46188;52.324;8.032;2023-05-08T12:53:07;100982.03;;;21.19;75.85
60345;BME280;46188;52.324;8.032;2023-05-08T12:55:34;100978.22;;;21.28;75.98
60345;BME280;46188;52.324;8.032;2023-05-08T12:58:07;100977.50;;;21.22;76.11
60345;BME280;46188;52.324;8.032;2023-05-08T13:00:44;100973.06;;;21.22;76.73
60345;BME280;46188;52.324;8.032;2023-05-08T13:03:11;100974.38;;;21.40;76.00
60345;BME280;46188;52.324;8.032;2023-05-08T13:05:42;100973.97;;;21.57;74.67
60345;BME280;46188;52.324;8.032;2023-05-08T13:08:08;100970.44;;;21.55;74.00
60345;BME280;46188;52.324;8.032;2023-05-08T13:10:49;100964.81;;;21.97;72.25
60345;BME280;46188;52.324;8.032;2023-05-08T13:13:17;100967.41;;;22.00;71.35
60345;BME280;46188;52.324;8.032;2023-05-08T13:15:43;100964.59;;;22.05;70.88
60345;BME280;46188;52.324;8.032;2023-05-08T13:18:08;100961.88;;;22.67;68.61
60345;BME280;46188;52.324;8.032;2023-05-08T13:20:34;100967.97;;;23.01;66.97
60345;BME280;46188;52.324;8.032;2023-05-08T13:22:59;100959.56;;;23.12;67.68
60345;BME280;46188;52.324;8.032;2023-05-08T13:25:25;100967.50;;;22.87;67.48
60345;BME280;46188;52.324;8.032;2023-05-08T13:27:50;100963.69;;;22.65;68.94
60345;BME280;46188;52.324;8.032;2023-05-08T13:30:15;100956.72;;;23.16;67.02